sensor_id;sensor_type;location;lat;lon;timestamp;P1;durP1;ratioP1;P2;durP2;ratioP2
10491;SDS011;5293;51.464;-2.566;2023-05-18T00:02:04;12.70;;;6.20;;
10491;SDS011;5293;51.464;-2.566;2023-05-18T00:04:34;10.50;;;5.70;;
10491;SDS011;5293;51.464;-2.566;2023-05-18T00:07:00;11.83;;;5.80;;
10491;SDS011;5293;51.464;-2.566;2023-05-18T00:09:31;16.23;;;6.73;;
10491;SDS011;5293;51.464;-2.566;2023-05-18T00:11:58;11.53;;;6.10;;
10491;SDS011;5293;51.464;-2.566;2023-05-18T00:14:25;15.47;;;6.00;;
10491;SDS011;5293;51.464;-2.566;2023-05-18T00:16:51;15.93;;;6.00;;
10491;SDS011;5293;51.464;-2.566;2023-05-18T00:19:21;10.97;;;5.80;;
10491;SDS011;5293;51.464;-2.566;2023-05-18T00:21:48;14.67;;;5.93;;
10491;SDS011;5293;51.464;-2.566;2023-05-18T00:24:15;15.50;;;5.80;;
10491;SDS011;5293;51.464;-2.566;2023-05-18T00:26:43;12.83;;;6.17;;
10491;SDS011;5293;51.464;-2.566;2023-05-18T00:29:10;17.40;;;6.10;;
10491;SDS011;5293;51.464;-2.566;2023-05-18T00:31:37;11.57;;;5.90;;
10491;SDS011;5293;51.464;-2.566;2023-05-18T00:34:13;14.53;;;6.90;;
10491;SDS011;5293;51.464;-2.566;2023-05-18T00:36:39;11.87;;;5.87;;
10491;SDS011;5293;51.464;-2.566;2023-05-18T00:39:06;11.20;;;6.17;;
10491;SDS011;5293;51.464;-2.566;2023-05-18T00:41:33;13.03;;;6.70;;
10491;SDS011;5293;51.464;-2.566;2023-05-18T00:43:59;17.47;;;6.97;;
10491;SDS011;5293;51.464;-2.566;2023-05-18T00:46:26;13.97;;;6.23;;
10491;SDS011;5293;51.464;-2.566;2023-05-18T00:48:53;13.27;;;6.70;;
10491;SDS011;5293;51.464;-2.566;2023-05-18T00:51:21;11.63;;;6.10;;
10491;SDS011;5293;51.464;-2.566;2023-05-18T00:53:48;13.10;;;6.10;;
10491;SDS011;5293;51.464;-2.566;2023-05-18T00:56:16;10.87;;;5.90;;
10491;SDS011;5293;51.464;-2.566;2023-05-18T00:58:42;15.63;;;6.43;;
10491;SDS011;5293;51.464;-2.566;2023-05-18T01:01:08;11.73;;;6.30;;
10491;SDS011;5293;51.464;-2.566;2023-05-18T01:03:34;17.40;;;6.83;;
10491;SDS011;5293;51.464;-2.566;2023-05-18T01:06:06;11.70;;;6.43;;
10491;SDS011;5293;51.464;-2.566;2023-05-18T01:08:33;14.77;;;6.80;;
10491;SDS011;5293;51.464;-2.566;2023-05-18T01:16:34;15.30;;;6.33;;
10491;SDS011;5293;51.464;-2.566;2023-05-18T01:22:04;14.97;;;6.47;;
10491;SDS011;5293;51.464;-2.566;2023-05-18T01:24:39;11.80;;;6.17;;
10491;SDS011;5293;51.464;-2.566;2023-05-18T01:27:06;10.03;;;6.20;;
10491;SDS011;5293;51.464;-2.566;2023-05-18T01:29:33;15.43;;;6.43;;
10491;SDS011;5293;51.464;-2.566;2023-05-18T01:31:59;9.90;;;5.97;;
10491;SDS011;5293;51.464;-2.566;2023-05-18T01:34:25;14.53;;;6.57;;
10491;SDS011;5293;51.464;-2.566;2023-05-18T01:36:51;11.67;;;6.40;;
10491;SDS011;5293;51.464;-2.566;2023-05-18T01:39:17;13.73;;;6.63;;
10491;SDS011;5293;51.464;-2.566;2023-05-18T01:42:06;10.03;;;6.17;;
10491;SDS011;5293;51.464;-2.566;2023-05-18T01:47:13;12.97;;;6.50;;
10491;SDS011;5293;51.464;-2.566;2023-05-18T01:49:58;10.57;;;6.40;;
10491;SDS011;5293;51.464;-2.566;2023-05-18T01:52:45;12.93;;;6.27;;
10491;SDS011;5293;51.464;-2.566;2023-05-18T01:55:17;10.77;;;6.47;;
10491;SDS011;5293;51.464;-2.566;2023-05-18T01:57:45;12.57;;;5.90;;
10491;SDS011;5293;51.464;-2.566;2023-05-18T02:00:14;10.53;;;6.03;;
10491;SDS011;5293;51.464;-2.566;2023-05-18T02:02:41;13.23;;;6.93;;
10491;SDS011;5293;51.464;-2.566;2023-05-18T02:05:07;12.90;;;7.10;;
10491;SDS011;5293;51.464;-2.566;2023-05-18T02:07:36;14.37;;;6.10;;
10491;SDS011;5293;51.464;-2.566;2023-05-18T02:10:03;13.37;;;6.50;;
10491;SDS011;5293;51.464;-2.566;2023-05-18T02:12:32;14.63;;;6.77;;
10491;SDS011;5293;51.464;-2.566;2023-05-18T02:14:58;16.33;;;6.80;;
10491;SDS011;5293;51.464;-2.566;2023-05-18T02:17:25;12.37;;;6.60;;
10491;SDS011;5293;51.464;-2.566;2023-05-18T02:19:50;12.73;;;6.57;;
10491;SDS011;5293;51.464;-2.566;2023-05-18T02:22:16;22.13;;;7.80;;
10491;SDS011;5293;51.464;-2.566;2023-05-18T02:24:42;13.67;;;7.40;;
10491;SDS011;5293;51.464;-2.566;2023-05-18T02:27:10;14.27;;;6.57;;
10491;SDS011;5293;51.464;-2.566;2023-05-18T02:29:35;16.10;;;7.20;;
10491;SDS011;5293;51.464;-2.566;2023-05-18T02:32:02;17.13;;;7.33;;
10491;SDS011;5293;51.464;-2.566;2023-05-18T02:34:27;11.77;;;6.67;;
10491;SDS011;5293;51.464;-2.566;2023-05-18T02:36:56;22.50;;;7.80;;
10491;SDS011;5293;51.464;-2.566;2023-05-18T02:39:27;11.50;;;6.77;;
10491;SDS011;5293;51.464;-2.566;2023-05-18T02:41:53;15.33;;;6.87;;
10491;SDS011;5293;51.464;-2.566;2023-05-18T02:44:19;14.40;;;6.60;;
10491;SDS011;5293;51.464;-2.566;2023-05-18T02:46:44;18.60;;;7.93;;
10491;SDS011;5293;51.464;-2.566;2023-05-18T02:49:10;12.87;;;6.80;;
10491;SDS011;5293;51.464;-2.566;2023-05-18T02:51:36;16.77;;;7.27;;
10491;SDS011;5293;51.464;-2.566;2023-05-18T02:54:01;11.90;;;6.30;;
10491;SDS011;5293;51.464;-2.566;2023-05-18T02:56:27;12.83;;;6.73;;
10491;SDS011;5293;51.464;-2.566;2023-05-18T02:58:53;13.60;;;6.70;;
10491;SDS011;5293;51.464;-2.566;2023-05-18T03:01:22;14.73;;;6.90;;
10491;SDS011;5293;51.464;-2.566;2023-05-18T03:03:52;11.57;;;6.17;;
10491;SDS011;5293;51.464;-2.566;2023-05-18T03:06:18;15.20;;;7.80;;
10491;SDS011;5293;51.464;-2.566;2023-05-18T03:08:50;14.17;;;6.50;;
10491;SDS011;5293;51.464;-2.566;2023-05-18T03:11:19;13.70;;;6.77;;
10491;SDS011;5293;51.464;-2.566;2023-05-18T03:13:46;17.03;;;7.03;;
10491;SDS011;5293;51.464;-2.566;2023-05-18T03:16:12;14.53;;;7.23;;
10491;SDS011;5293;51.464;-2.566;2023-05-18T03:18:38;15.43;;;7.07;;
10491;SDS011;5293;51.464;-2.566;2023-05-18T03:21:04;13.50;;;6.83;;
10491;SDS011;5293;51.464;-2.566;2023-05-18T03:23:30;10.40;;;6.47;;
10491;SDS011;5293;51.464;-2.566;2023-05-18T03:25:55;14.27;;;6.73;;
10491;SDS011;5293;51.464;-2.566;2023-05-18T03:28:21;12.60;;;7.03;;
10491;SDS011;5293;51.464;-2.566;2023-05-18T03:30:47;13.47;;;6.97;;
10491;SDS011;5293;51.464;-2.566;2023-05-18T03:33:13;12.30;;;6.93;;
10491;SDS011;5293;51.464;-2.566;2023-05-18T03:35:38;18.03;;;6.97;;
10491;SDS011;5293;51.464;-2.566;2023-05-18T03:38:07;12.93;;;7.23;;
10491;SDS011;5293;51.464;-2.566;2023-05-18T03:40:33;16.27;;;6.40;;
10491;SDS011;5293;51.464;-2.566;2023-05-18T03:42:59;15.37;;;8.03;;
10491;SDS011;5293;51.464;-2.566;2023-05-18T03:45:25;15.40;;;7.20;;
10491;SDS011;5293;51.464;-2.566;2023-05-18T03:47:51;16.57;;;7.37;;
10491;SDS011;5293;51.464;-2.566;2023-05-18T03:50:17;12.67;;;7.07;;
10491;SDS011;5293;51.464;-2.566;2023-05-18T03:52:42;11.93;;;6.70;;
10491;SDS011;5293;51.464;-2.566;2023-05-18T03:55:08;12.17;;;7.03;;
10491;SDS011;5293;51.464;-2.566;2023-05-18T03:57:35;13.50;;;7.10;;
10491;SDS011;5293;51.464;-2.566;2023-05-18T04:00:01;10.67;;;6.47;;
10491;SDS011;5293;51.464;-2.566;2023-05-18T04:02:30;16.40;;;7.37;;
10491;SDS011;5293;51.464;-2.566;2023-05-18T04:04:56;12.70;;;7.47;;
10491;SDS011;5293;51.464;-2.566;2023-05-18T04:07:22;13.50;;;7.07;;
10491;SDS011;5293;51.464;-2.566;2023-05-18T04:09:48;11.23;;;6.97;;
10491;SDS011;5293;51.464;-2.566;2023-05-18T04:12:15;13.93;;;7.53;;
10491;SDS011;5293;51.464;-2.566;2023-05-18T04:14:41;12.00;;;7.20;;
10491;SDS011;5293;51.464;-2.566;2023-05-18T04:17:07;12.47;;;6.77;;
10491;SDS011;5293;51.464;-2.566;2023-05-18T04:19:34;12.13;;;6.90;;
10491;SDS011;5293;51.464;-2.566;2023-05-18T04:22:01;18.80;;;7.47;;
10491;SDS011;5293;51.464;-2.566;2023-05-18T04:24:32;10.87;;;6.87;;
10491;SDS011;5293;51.464;-2.566;2023-05-18T04:26:59;16.40;;;7.73;;
10491;SDS011;5293;51.464;-2.566;2023-05-18T04:29:25;13.90;;;7.77;;
10491;SDS011;5293;51.464;-2.566;2023-05-18T04:31:54;14.73;;;7.40;;
10491;SDS011;5293;51.464;-2.566;2023-05-18T04:34:26;15.73;;;7.33;;
10491;SDS011;5293;51.464;-2.566;2023-05-18T04:36:52;13.47;;;7.83;;
10491;SDS011;5293;51.464;-2.566;2023-05-18T04:39:22;10.97;;;7.53;;
10491;SDS011;5293;51.464;-2.566;2023-05-18T04:41:49;17.00;;;8.40;;
10491;SDS011;5293;51.464;-2.566;2023-05-18T04:44:22;15.80;;;7.60;;
10491;SDS011;5293;51.464;-2.566;2023-05-18T04:46:51;14.43;;;8.70;;
10491;SDS011;5293;51.464;-2.566;2023-05-18T04:49:17;14.73;;;7.47;;
10491;SDS011;5293;51.464;-2.566;2023-05-18T04:51:46;16.63;;;8.13;;
10491;SDS011;5293;51.464;-2.566;2023-05-18T04:54:20;13.37;;;7.37;;
10491;SDS011;5293;51.464;-2.566;2023-05-18T04:56:47;16.80;;;8.03;;
10491;SDS011;5293;51.464;-2.566;2023-05-18T04:59:13;12.93;;;7.97;;
10491;SDS011;5293;51.464;-2.566;2023-05-18T05:01:39;14.40;;;7.50;;
10491;SDS011;5293;51.464;-2.566;2023-05-18T05:04:04;21.93;;;8.10;;
10491;SDS011;5293;51.464;-2.566;2023-05-18T05:06:30;14.77;;;8.07;;
10491;SDS011;5293;51.464;-2.566;2023-05-18T05:08:56;16.63;;;8.73;;
10491;SDS011;5293;51.464;-2.566;2023-05-18T05:11:22;14.30;;;8.00;;
10491;SDS011;5293;51.464;-2.566;2023-05-18T05:13:48;13.37;;;8.07;;
10491;SDS011;5293;51.464;-2.566;2023-05-18T05:16:13;14.43;;;8.27;;
10491;SDS011;5293;51.464;-2.566;2023-05-18T05:18:39;13.47;;;8.30;;
10491;SDS011;5293;51.464;-2.566;2023-05-18T05:21:04;18.07;;;8.50;;
10491;SDS011;5293;51.464;-2.566;2023-05-18T05:23:30;15.03;;;7.73;;
10491;SDS011;5293;51.464;-2.566;2023-05-18T05:25:56;21.40;;;8.60;;
10491;SDS011;5293;51.464;-2.566;2023-05-18T05:28:22;22.93;;;8.70;;
10491;SDS011;5293;51.464;-2.566;2023-05-18T05:30:47;15.57;;;8.67;;
10491;SDS011;5293;51.464;-2.566;2023-05-18T05:33:13;17.07;;;8.27;;
10491;SDS011;5293;51.464;-2.566;2023-05-18T05:35:39;15.33;;;8.50;;
10491;SDS011;5293;51.464;-2.566;2023-05-18T05:38:05;13.13;;;8.13;;
10491;SDS011;5293;51.464;-2.566;2023-05-18T05:40:31;16.33;;;8.17;;
10491;SDS011;5293;51.464;-2.566;2023-05-18T05:42:56;19.20;;;8.90;;
10491;SDS011;5293;51.464;-2.566;2023-05-18T05:45:22;15.57;;;8.33;;
10491;SDS011;5293;51.464;-2.566;2023-05-18T05:47:48;17.33;;;8.53;;
10491;SDS011;5293;51.464;-2.566;2023-05-18T05:50:14;12.50;;;8.27;;
10491;SDS011;5293;51.464;-2.566;2023-05-18T05:52:40;12.83;;;7.27;;
10491;SDS011;5293;51.464;-2.566;2023-05-18T05:55:06;13.80;;;8.20;;
10491;SDS011;5293;51.464;-2.566;2023-05-18T05:57:31;13.77;;;7.93;;
10491;SDS011;5293;51.464;-2.566;2023-05-18T05:59:57;14.60;;;8.77;;
10491;SDS011;5293;51.464;-2.566;2023-05-18T06:02:23;17.00;;;7.80;;
10491;SDS011;5293;51.464;-2.566;2023-05-18T06:04:48;14.13;;;8.40;;
10491;SDS011;5293;51.464;-2.566;2023-05-18T06:07:14;14.90;;;8.33;;
10491;SDS011;5293;51.464;-2.566;2023-05-18T06:09:40;19.07;;;9.50;;
10491;SDS011;5293;51.464;-2.566;2023-05-18T06:12:05;15.23;;;8.50;;
10491;SDS011;5293;51.464;-2.566;2023-05-18T06:14:31;16.00;;;8.90;;
10491;SDS011;5293;51.464;-2.566;2023-05-18T06:16:57;15.00;;;8.43;;
10491;SDS011;5293;51.464;-2.566;2023-05-18T06:19:23;18.63;;;8.73;;
10491;SDS011;5293;51.464;-2.566;2023-05-18T06:21:48;17.50;;;9.47;;
10491;SDS011;5293;51.464;-2.566;2023-05-18T06:24:14;16.97;;;9.20;;
10491;SDS011;5293;51.464;-2.566;2023-05-18T06:26:40;17.73;;;9.77;;
10491;SDS011;5293;51.464;-2.566;2023-05-18T06:29:05;16.37;;;9.07;;
10491;SDS011;5293;51.464;-2.566;2023-05-18T06:31:33;25.70;;;10.03;;
10491;SDS011;5293;51.464;-2.566;2023-05-18T06:33:59;17.63;;;9.27;;
10491;SDS011;5293;51.464;-2.566;2023-05-18T06:36:24;23.27;;;10.03;;
10491;SDS011;5293;51.464;-2.566;2023-05-18T06:38:50;18.03;;;9.87;;
10491;SDS011;5293;51.464;-2.566;2023-05-18T06:41:16;19.30;;;10.07;;
10491;SDS011;5293;51.464;-2.566;2023-05-18T06:43:41;21.90;;;9.60;;
10491;SDS011;5293;51.464;-2.566;2023-05-18T06:46:07;14.23;;;9.83;;
10491;SDS011;5293;51.464;-2.566;2023-05-18T06:48:33;15.77;;;9.80;;
10491;SDS011;5293;51.464;-2.566;2023-05-18T06:50:59;19.53;;;9.90;;
10491;SDS011;5293;51.464;-2.566;2023-05-18T06:53:25;20.47;;;9.87;;
10491;SDS011;5293;51.464;-2.566;2023-05-18T06:55:51;20.87;;;10.87;;
10491;SDS011;5293;51.464;-2.566;2023-05-18T06:58:17;17.73;;;9.47;;
10491;SDS011;5293;51.464;-2.566;2023-05-18T07:00:42;16.17;;;9.20;;
10491;SDS011;5293;51.464;-2.566;2023-05-18T07:03:08;12.93;;;8.30;;
10491;SDS011;5293;51.464;-2.566;2023-05-18T07:05:34;16.67;;;8.93;;
10491;SDS011;5293;51.464;-2.566;2023-05-18T07:08:00;18.33;;;9.60;;
10491;SDS011;5293;51.464;-2.566;2023-05-18T07:10:27;17.23;;;9.07;;
10491;SDS011;5293;51.464;-2.566;2023-05-18T07:12:53;24.17;;;9.07;;
10491;SDS011;5293;51.464;-2.566;2023-05-18T07:15:19;14.90;;;8.40;;
10491;SDS011;5293;51.464;-2.566;2023-05-18T07:17:45;17.77;;;8.10;;
10491;SDS011;5293;51.464;-2.566;2023-05-18T07:20:11;18.73;;;10.40;;
10491;SDS011;5293;51.464;-2.566;2023-05-18T07:22:37;19.43;;;9.47;;
10491;SDS011;5293;51.464;-2.566;2023-05-18T07:25:03;17.83;;;8.83;;
10491;SDS011;5293;51.464;-2.566;2023-05-18T07:27:29;18.67;;;8.77;;
10491;SDS011;5293;51.464;-2.566;2023-05-18T07:29:55;20.90;;;9.17;;
10491;SDS011;5293;51.464;-2.566;2023-05-18T07:32:21;13.63;;;8.30;;
10491;SDS011;5293;51.464;-2.566;2023-05-18T07:34:47;19.03;;;9.23;;
10491;SDS011;5293;51.464;-2.566;2023-05-18T07:37:13;16.90;;;9.17;;
10491;SDS011;5293;51.464;-2.566;2023-05-18T07:39:39;12.73;;;7.73;;
10491;SDS011;5293;51.464;-2.566;2023-05-18T07:42:05;16.73;;;9.17;;
10491;SDS011;5293;51.464;-2.566;2023-05-18T07:44:32;14.40;;;7.20;;
10491;SDS011;5293;51.464;-2.566;2023-05-18T07:46:57;17.77;;;8.53;;
10491;SDS011;5293;51.464;-2.566;2023-05-18T07:49:23;13.53;;;8.70;;
10491;SDS011;5293;51.464;-2.566;2023-05-18T07:51:50;20.37;;;9.03;;
10491;SDS011;5293;51.464;-2.566;2023-05-18T07:54:16;17.60;;;9.10;;
10491;SDS011;5293;51.464;-2.566;2023-05-18T07:56:41;19.87;;;9.00;;
10491;SDS011;5293;51.464;-2.566;2023-05-18T07:59:08;20.13;;;9.20;;
10491;SDS011;5293;51.464;-2.566;2023-05-18T08:01:35;13.47;;;7.80;;
10491;SDS011;5293;51.464;-2.566;2023-05-18T08:04:01;17.52;;;8.40;;
10491;SDS011;5293;51.464;-2.566;2023-05-18T08:06:27;17.03;;;8.00;;
10491;SDS011;5293;51.464;-2.566;2023-05-18T08:08:53;14.30;;;8.07;;
10491;SDS011;5293;51.464;-2.566;2023-05-18T08:11:20;16.30;;;8.93;;
10491;SDS011;5293;51.464;-2.566;2023-05-18T08:13:47;15.37;;;8.23;;
10491;SDS011;5293;51.464;-2.566;2023-05-18T08:16:13;11.73;;;7.67;;
10491;SDS011;5293;51.464;-2.566;2023-05-18T08:18:39;12.40;;;7.83;;
10491;SDS011;5293;51.464;-2.566;2023-05-18T08:21:04;14.53;;;8.30;;
10491;SDS011;5293;51.464;-2.566;2023-05-18T08:23:33;16.13;;;8.03;;
10491;SDS011;5293;51.464;-2.566;2023-05-18T08:26:02;17.93;;;8.43;;
10491;SDS011;5293;51.464;-2.566;2023-05-18T08:28:28;18.97;;;8.10;;
10491;SDS011;5293;51.464;-2.566;2023-05-18T08:30:55;16.13;;;8.03;;
10491;SDS011;5293;51.464;-2.566;2023-05-18T08:33:20;17.27;;;8.13;;
10491;SDS011;5293;51.464;-2.566;2023-05-18T08:35:47;15.13;;;7.20;;
10491;SDS011;5293;51.464;-2.566;2023-05-18T08:38:13;18.13;;;7.20;;
10491;SDS011;5293;51.464;-2.566;2023-05-18T08:40:41;12.47;;;6.80;;
10491;SDS011;5293;51.464;-2.566;2023-05-18T08:43:16;9.03;;;5.33;;
10491;SDS011;5293;51.464;-2.566;2023-05-18T08:45:47;7.87;;;5.50;;
10491;SDS011;5293;51.464;-2.566;2023-05-18T08:48:18;11.93;;;5.23;;
10491;SDS011;5293;51.464;-2.566;2023-05-18T08:50:46;11.70;;;5.97;;
10491;SDS011;5293;51.464;-2.566;2023-05-18T08:53:13;13.93;;;6.13;;
10491;SDS011;5293;51.464;-2.566;2023-05-18T08:55:42;9.03;;;5.70;;
10491;SDS011;5293;51.464;-2.566;2023-05-18T08:58:10;11.90;;;5.60;;
10491;SDS011;5293;51.464;-2.566;2023-05-18T09:00:41;12.37;;;5.80;;
10491;SDS011;5293;51.464;-2.566;2023-05-18T09:03:07;13.80;;;6.10;;
10491;SDS011;5293;51.464;-2.566;2023-05-18T09:05:33;8.43;;;5.83;;
10491;SDS011;5293;51.464;-2.566;2023-05-18T09:07:58;13.00;;;7.77;;
10491;SDS011;5293;51.464;-2.566;2023-05-18T09:10:26;10.43;;;5.43;;
10491;SDS011;5293;51.464;-2.566;2023-05-18T09:12:52;12.47;;;5.50;;
10491;SDS011;5293;51.464;-2.566;2023-05-18T09:15:20;7.33;;;4.50;;
10491;SDS011;5293;51.464;-2.566;2023-05-18T09:17:45;9.80;;;5.00;;
10491;SDS011;5293;51.464;-2.566;2023-05-18T09:20:11;10.23;;;4.60;;
10491;SDS011;5293;51.464;-2.566;2023-05-18T09:22:37;8.37;;;4.47;;
10491;SDS011;5293;51.464;-2.566;2023-05-18T09:25:07;7.83;;;4.43;;
10491;SDS011;5293;51.464;-2.566;2023-05-18T09:27:34;10.30;;;5.40;;
10491;SDS011;5293;51.464;-2.566;2023-05-18T09:29:59;10.93;;;5.00;;
10491;SDS011;5293;51.464;-2.566;2023-05-18T09:32:25;9.07;;;5.97;;
10491;SDS011;5293;51.464;-2.566;2023-05-18T09:34:51;8.97;;;5.60;;
10491;SDS011;5293;51.464;-2.566;2023-05-18T09:37:18;7.23;;;4.97;;
10491;SDS011;5293;51.464;-2.566;2023-05-18T09:39:44;11.67;;;5.30;;
10491;SDS011;5293;51.464;-2.566;2023-05-18T09:42:31;10.13;;;5.90;;
10491;SDS011;5293;51.464;-2.566;2023-05-18T09:44:59;9.97;;;5.73;;
10491;SDS011;5293;51.464;-2.566;2023-05-18T09:47:26;12.03;;;5.27;;
10491;SDS011;5293;51.464;-2.566;2023-05-18T09:49:54;9.73;;;5.20;;
10491;SDS011;5293;51.464;-2.566;2023-05-18T09:52:20;8.33;;;6.27;;
10491;SDS011;5293;51.464;-2.566;2023-05-18T09:54:51;9.43;;;5.47;;
10491;SDS011;5293;51.464;-2.566;2023-05-18T09:57:23;10.73;;;5.30;;
10491;SDS011;5293;51.464;-2.566;2023-05-18T09:59:55;9.87;;;5.40;;
10491;SDS011;5293;51.464;-2.566;2023-05-18T10:02:29;12.90;;;6.10;;
10491;SDS011;5293;51.464;-2.566;2023-05-18T10:04:54;10.13;;;5.47;;
10491;SDS011;5293;51.464;-2.566;2023-05-18T10:07:21;13.20;;;5.77;;
10491;SDS011;5293;51.464;-2.566;2023-05-18T10:09:47;10.20;;;5.47;;
10491;SDS011;5293;51.464;-2.566;2023-05-18T10:12:26;6.93;;;5.37;;
10491;SDS011;5293;51.464;-2.566;2023-05-18T10:14:52;12.07;;;5.97;;
10491;SDS011;5293;51.464;-2.566;2023-05-18T10:17:17;12.53;;;6.43;;
10491;SDS011;5293;51.464;-2.566;2023-05-18T10:19:44;11.20;;;5.60;;
10491;SDS011;5293;51.464;-2.566;2023-05-18T10:22:10;11.53;;;5.73;;
10491;SDS011;5293;51.464;-2.566;2023-05-18T10:24:44;10.63;;;5.40;;
10491;SDS011;5293;51.464;-2.566;2023-05-18T10:27:11;10.47;;;6.07;;
10491;SDS011;5293;51.464;-2.566;2023-05-18T10:29:40;10.23;;;5.50;;
10491;SDS011;5293;51.464;-2.566;2023-05-18T10:32:06;10.27;;;5.00;;
10491;SDS011;5293;51.464;-2.566;2023-05-18T10:34:36;12.33;;;4.93;;
10491;SDS011;5293;51.464;-2.566;2023-05-18T10:37:04;11.53;;;4.77;;
10491;SDS011;5293;51.464;-2.566;2023-05-18T10:39:32;6.40;;;4.90;;
10491;SDS011;5293;51.464;-2.566;2023-05-18T10:42:01;10.10;;;4.80;;
10491;SDS011;5293;51.464;-2.566;2023-05-18T10:44:28;7.93;;;5.07;;
10491;SDS011;5293;51.464;-2.566;2023-05-18T10:46:55;8.70;;;5.10;;
10491;SDS011;5293;51.464;-2.566;2023-05-18T10:49:21;8.73;;;4.80;;
10491;SDS011;5293;51.464;-2.566;2023-05-18T10:51:50;12.47;;;5.13;;
10491;SDS011;5293;51.464;-2.566;2023-05-18T10:54:19;7.67;;;4.40;;
10491;SDS011;5293;51.464;-2.566;2023-05-18T10:56:47;9.50;;;4.73;;
10491;SDS011;5293;51.464;-2.566;2023-05-18T10:59:16;12.70;;;5.23;;
10491;SDS011;5293;51.464;-2.566;2023-05-18T11:01:43;11.30;;;5.43;;
10491;SDS011;5293;51.464;-2.566;2023-05-18T11:04:11;7.87;;;5.13;;
10491;SDS011;5293;51.464;-2.566;2023-05-18T11:06:36;9.43;;;5.63;;
10491;SDS011;5293;51.464;-2.566;2023-05-18T11:09:03;7.47;;;4.60;;
10491;SDS011;5293;51.464;-2.566;2023-05-18T11:11:29;12.40;;;5.50;;
10491;SDS011;5293;51.464;-2.566;2023-05-18T11:14:26;8.17;;;4.73;;
10491;SDS011;5293;51.464;-2.566;2023-05-18T11:27:49;10.97;;;5.07;;
10491;SDS011;5293;51.464;-2.566;2023-05-18T11:30:28;11.27;;;5.80;;
10491;SDS011;5293;51.464;-2.566;2023-05-18T11:33:41;9.37;;;5.70;;
10491;SDS011;5293;51.464;-2.566;2023-05-18T11:36:10;12.23;;;6.53;;
10491;SDS011;5293;51.464;-2.566;2023-05-18T11:41:37;9.60;;;5.47;;
10491;SDS011;5293;51.464;-2.566;2023-05-18T11:49:17;10.70;;;5.43;;
10491;SDS011;5293;51.464;-2.566;2023-05-18T11:52:01;7.00;;;4.50;;
10491;SDS011;5293;51.464;-2.566;2023-05-18T11:57:13;8.47;;;5.13;;
10491;SDS011;5293;51.464;-2.566;2023-05-18T11:59:44;10.30;;;5.00;;
10491;SDS011;5293;51.464;-2.566;2023-05-18T12:02:11;10.20;;;5.13;;
10491;SDS011;5293;51.464;-2.566;2023-05-18T12:04:43;12.50;;;6.90;;
10491;SDS011;5293;51.464;-2.566;2023-05-18T12:07:11;11.90;;;5.63;;
10491;SDS011;5293;51.464;-2.566;2023-05-18T12:09:41;10.47;;;5.70;;
10491;SDS011;5293;51.464;-2.566;2023-05-18T12:12:08;9.67;;;5.90;;
10491;SDS011;5293;51.464;-2.566;2023-05-18T12:14:35;12.03;;;5.20;;
10491;SDS011;5293;51.464;-2.566;2023-05-18T12:17:05;9.33;;;5.50;;
10491;SDS011;5293;51.464;-2.566;2023-05-18T12:19:35;9.23;;;5.53;;
10491;SDS011;5293;51.464;-2.566;2023-05-18T12:22:02;7.93;;;4.93;;
10491;SDS011;5293;51.464;-2.566;2023-05-18T12:24:28;10.37;;;4.80;;
10491;SDS011;5293;51.464;-2.566;2023-05-18T12:26:54;9.03;;;5.43;;
10491;SDS011;5293;51.464;-2.566;2023-05-18T12:29:20;10.00;;;5.30;;
10491;SDS011;5293;51.464;-2.566;2023-05-18T12:31:48;8.73;;;5.60;;
10491;SDS011;5293;51.464;-2.566;2023-05-18T12:34:14;9.20;;;5.03;;
10491;SDS011;5293;51.464;-2.566;2023-05-18T12:37:01;8.17;;;4.60;;
10491;SDS011;5293;51.464;-2.566;2023-05-18T12:39:26;8.07;;;4.93;;
10491;SDS011;5293;51.464;-2.566;2023-05-18T12:41:51;7.50;;;4.27;;
10491;SDS011;5293;51.464;-2.566;2023-05-18T12:44:17;5.83;;;4.23;;
10491;SDS011;5293;51.464;-2.566;2023-05-18T12:46:43;9.20;;;4.53;;
10491;SDS011;5293;51.464;-2.566;2023-05-18T12:49:08;9.33;;;4.60;;
10491;SDS011;5293;51.464;-2.566;2023-05-18T12:51:35;8.43;;;4.80;;
10491;SDS011;5293;51.464;-2.566;2023-05-18T12:54:02;7.73;;;4.20;;
10491;SDS011;5293;51.464;-2.566;2023-05-18T12:56:47;4.57;;;3.60;;
10491;SDS011;5293;51.464;-2.566;2023-05-18T12:59:17;5.43;;;3.60;;
10491;SDS011;5293;51.464;-2.566;2023-05-18T13:01:43;6.00;;;3.60;;
10491;SDS011;5293;51.464;-2.566;2023-05-18T13:04:09;7.60;;;4.13;;
10491;SDS011;5293;51.464;-2.566;2023-05-18T13:06:36;4.43;;;3.20;;
10491;SDS011;5293;51.464;-2.566;2023-05-18T13:09:06;7.27;;;3.73;;
10491;SDS011;5293;51.464;-2.566;2023-05-18T13:11:33;5.67;;;3.27;;
10491;SDS011;5293;51.464;-2.566;2023-05-18T13:14:08;6.00;;;3.90;;
10491;SDS011;5293;51.464;-2.566;2023-05-18T13:16:37;5.53;;;3.57;;
10491;SDS011;5293;51.464;-2.566;2023-05-18T13:19:06;7.53;;;4.20;;
10491;SDS011;5293;51.464;-2.566;2023-05-18T13:21:33;7.20;;;3.97;;
10491;SDS011;5293;51.464;-2.566;2023-05-18T13:23:59;8.70;;;3.90;;
10491;SDS011;5293;51.464;-2.566;2023-05-18T13:26:26;6.03;;;3.30;;
10491;SDS011;5293;51.464;-2.566;2023-05-18T13:28:52;6.80;;;4.10;;
10491;SDS011;5293;51.464;-2.566;2023-05-18T13:31:19;4.57;;;3.43;;
10491;SDS011;5293;51.464;-2.566;2023-05-18T13:33:46;7.17;;;3.20;;
10491;SDS011;5293;51.464;-2.566;2023-05-18T13:36:13;6.67;;;3.70;;
10491;SDS011;5293;51.464;-2.566;2023-05-18T13:38:39;4.73;;;3.57;;
10491;SDS011;5293;51.464;-2.566;2023-05-18T13:41:05;4.90;;;3.40;;
10491;SDS011;5293;51.464;-2.566;2023-05-18T13:43:31;5.37;;;2.90;;
10491;SDS011;5293;51.464;-2.566;2023-05-18T13:45:57;4.30;;;2.60;;
10491;SDS011;5293;51.464;-2.566;2023-05-18T13:48:23;5.73;;;3.10;;
10491;SDS011;5293;51.464;-2.566;2023-05-18T13:50:49;4.93;;;3.00;;
10491;SDS011;5293;51.464;-2.566;2023-05-18T13:53:15;4.23;;;3.00;;
10491;SDS011;5293;51.464;-2.566;2023-05-18T13:55:40;6.67;;;3.37;;
10491;SDS011;5293;51.464;-2.566;2023-05-18T13:58:06;3.90;;;3.30;;
10491;SDS011;5293;51.464;-2.566;2023-05-18T14:00:32;3.97;;;3.07;;
10491;SDS011;5293;51.464;-2.566;2023-05-18T14:02:57;4.83;;;2.90;;
10491;SDS011;5293;51.464;-2.566;2023-05-18T14:05:23;4.73;;;3.20;;
10491;SDS011;5293;51.464;-2.566;2023-05-18T14:07:49;5.63;;;3.30;;
10491;SDS011;5293;51.464;-2.566;2023-05-18T14:10:18;5.13;;;2.87;;
10491;SDS011;5293;51.464;-2.566;2023-05-18T14:12:44;5.10;;;3.27;;
10491;SDS011;5293;51.464;-2.566;2023-05-18T14:15:11;7.83;;;3.33;;
10491;SDS011;5293;51.464;-2.566;2023-05-18T14:17:42;8.60;;;3.10;;
10491;SDS011;5293;51.464;-2.566;2023-05-18T14:20:08;3.50;;;2.97;;
10491;SDS011;5293;51.464;-2.566;2023-05-18T14:22:35;6.30;;;3.23;;
10491;SDS011;5293;51.464;-2.566;2023-05-18T14:25:00;3.53;;;2.90;;
10491;SDS011;5293;51.464;-2.566;2023-05-18T14:27:26;4.57;;;2.80;;
10491;SDS011;5293;51.464;-2.566;2023-05-18T14:29:52;4.57;;;3.17;;
10491;SDS011;5293;51.464;-2.566;2023-05-18T14:32:18;5.73;;;3.37;;
10491;SDS011;5293;51.464;-2.566;2023-05-18T14:34:47;6.83;;;2.73;;
10491;SDS011;5293;51.464;-2.566;2023-05-18T14:37:16;5.90;;;3.30;;
10491;SDS011;5293;51.464;-2.566;2023-05-18T14:39:42;5.30;;;3.20;;
10491;SDS011;5293;51.464;-2.566;2023-05-18T14:42:07;4.00;;;3.13;;
10491;SDS011;5293;51.464;-2.566;2023-05-18T14:44:33;4.13;;;2.93;;
10491;SDS011;5293;51.464;-2.566;2023-05-18T14:46:59;4.37;;;3.27;;
10491;SDS011;5293;51.464;-2.566;2023-05-18T14:49:25;5.47;;;3.90;;
10491;SDS011;5293;51.464;-2.566;2023-05-18T14:51:51;4.97;;;2.93;;
10491;SDS011;5293;51.464;-2.566;2023-05-18T14:54:16;4.67;;;3.10;;
10491;SDS011;5293;51.464;-2.566;2023-05-18T14:56:46;4.10;;;2.93;;
10491;SDS011;5293;51.464;-2.566;2023-05-18T14:59:12;7.57;;;2.87;;
10491;SDS011;5293;51.464;-2.566;2023-05-18T15:01:38;4.77;;;2.90;;
10491;SDS011;5293;51.464;-2.566;2023-05-18T15:04:03;4.53;;;2.97;;
10491;SDS011;5293;51.464;-2.566;2023-05-18T15:06:29;4.13;;;3.30;;
10491;SDS011;5293;51.464;-2.566;2023-05-18T15:08:55;8.00;;;5.57;;
10491;SDS011;5293;51.464;-2.566;2023-05-18T15:11:21;4.83;;;3.30;;
10491;SDS011;5293;51.464;-2.566;2023-05-18T15:13:47;4.10;;;2.60;;